Sunday, April 22, 2018, 5:53 PM EDT
Back to Local

KBGR, Bangor Int'l Airport

Location: Bangor, ME, United States Lat: 44.8
Local Time: 5:53 PM EDT (21:53 GMT) Lon: -68.817
Time Zone: US/Eastern Elev: 193 ft

Show me the last for .
Show Decoded

2018-04-22 16:53 METAR KBGR 222053Z 32014G23KT 10SM FEW250 13/M11 A3025 RMK AO2 SLP245 T01331111
                 55004 =
2018-04-22 15:53 METAR KBGR 221953Z 34014G23KT 10SM CLR 13/M12 A3025 RMK AO2 SLP245 T01331122 =
2018-04-22 14:53 METAR KBGR 221853Z 33015G23KT 10SM CLR 13/M12 A3026 RMK AO2 SLP247 T01331122 =
2018-04-22 13:53 METAR KBGR 221753Z 34009G20KT 10SM FEW200 13/M11 A3026 RMK AO2 SLP249 T01281111
                 10133 20044 56005 =
2018-04-22 12:53 METAR KBGR 221653Z 29003G19KT 10SM FEW200 12/M09 A3026 RMK AO2 SLP249 T01221094
                 =
2018-04-22 11:53 METAR KBGR 221553Z 31007G17KT 10SM FEW200 11/M09 A3027 RMK AO2 SLP251 T01111094
                 =
2018-04-22 10:53 METAR KBGR 221453Z 31013G22KT 10SM FEW200 10/M09 A3028 RMK AO2 SLP254 T01001094
                 57002 =
2018-04-22 09:53 METAR KBGR 221353Z 34010G17KT 10SM FEW200 09/M09 A3028 RMK AO2 SLP254 T00941094
                 =
2018-04-22 08:53 METAR KBGR 221253Z 33012KT 10SM FEW200 07/M07 A3028 RMK AO2 SLP256 T00721072 =
2018-04-22 07:53 METAR KBGR 221153Z 32004KT 10SM FEW200 04/M06 A3028 RMK AO2 SLP256 T00391056
                 10039 21033 51015 =
2018-04-22 06:53 METAR KBGR 221053Z 00000KT 10SM FEW200 02/M05 A3028 RMK AO2 SLP254 T00171050 =
2018-04-22 05:53 METAR KBGR 220953Z 00000KT 10SM FEW200 M03/M06 A3025 RMK AO2 SLP246 T10281056 =
2018-04-22 04:53 METAR KBGR 220853Z 00000KT 10SM FEW080 M02/M06 A3024 RMK AO2 SLP241 T10171056
                 51004 =
2018-04-22 03:53 METAR KBGR 220753Z 27004KT 10SM CLR 00/M06 A3024 RMK AO2 SLP240 T00001056 =
2018-04-22 02:53 METAR KBGR 220653Z 00000KT 10SM CLR 00/M06 A3023 RMK AO2 SLP238 T00001056 =
2018-04-22 01:53 METAR KBGR 220553Z 27005KT 10SM CLR 01/M06 A3023 RMK AO2 SLP237 T00111056 10072
                 21022 58001 =
2018-04-22 00:53 METAR KBGR 220453Z 25003KT 10SM FEW080 M01/M06 A3023 RMK AO2 SLP238 T10061056
                 401111006 =
2018-04-21 23:53 METAR KBGR 220353Z 26005KT 10SM FEW080 03/M06 A3023 RMK AO2 SLP237 T00331056 =
2018-04-21 22:53 METAR KBGR 220253Z 25004KT 10SM FEW080 02/M05 A3023 RMK AO2 SLP238 T00171050
                 51010 =
2018-04-21 21:53 METAR KBGR 220153Z 26003KT 10SM FEW080 03/M06 A3023 RMK AO2 SLP237 T00331056 =
2018-04-21 20:53 METAR KBGR 220053Z 29005KT 10SM SCT080 06/M06 A3022 RMK AO2 SLP234 T00561061 =
2018-04-21 19:53 METAR KBGR 212353Z 30007KT 10SM SCT080 07/M07 A3020 RMK AO2 SLP227 VIRGA S-W
                 T00721067 10111 20067 53021 =
2018-04-21 18:53 METAR KBGR 212253Z 32013KT 10SM BKN080 08/M06 A3017 RMK AO2 SLP217 VIRGA ALQDS
                 T00831056 =

Support USWX by starting your Amazon purchase here.